sensor_id;sensor_type;location;lat;lon;timestamp;temperature;humidity
1455;DHT22;721;48.168;12.818;2022-08-01T00:02:14;21.50;6.70
1455;DHT22;721;48.168;12.818;2022-08-01T00:04:40;21.40;7.00
1455;DHT22;721;48.168;12.818;2022-08-01T00:07:08;21.30;7.70
1455;DHT22;721;48.168;12.818;2022-08-01T00:09:36;21.20;8.10
1455;DHT22;721;48.168;12.818;2022-08-01T00:12:03;21.20;8.60
1455;DHT22;721;48.168;12.818;2022-08-01T00:14:30;21.20;8.10
1455;DHT22;721;48.168;12.818;2022-08-01T00:16:57;21.20;8.60
1455;DHT22;721;48.168;12.818;2022-08-01T00:19:24;21.20;8.80
1455;DHT22;721;48.168;12.818;2022-08-01T00:21:51;21.10;9.30
1455;DHT22;721;48.168;12.818;2022-08-01T00:24:18;20.90;10.00
1455;DHT22;721;48.168;12.818;2022-08-01T00:26:46;21.00;10.10
1455;DHT22;721;48.168;12.818;2022-08-01T00:29:13;21.00;10.10
1455;DHT22;721;48.168;12.818;2022-08-01T00:31:40;21.00;10.10
1455;DHT22;721;48.168;12.818;2022-08-01T00:34:07;20.90;10.50
1455;DHT22;721;48.168;12.818;2022-08-01T00:36:34;20.90;10.40
1455;DHT22;721;48.168;12.818;2022-08-01T00:39:00;20.80;11.10
1455;DHT22;721;48.168;12.818;2022-08-01T00:41:27;20.90;11.00
1455;DHT22;721;48.168;12.818;2022-08-01T00:43:56;20.90;11.30
1455;DHT22;721;48.168;12.818;2022-08-01T00:46:24;20.80;12.00
1455;DHT22;721;48.168;12.818;2022-08-01T00:48:51;20.80;11.20
1455;DHT22;721;48.168;12.818;2022-08-01T00:51:18;20.80;11.20
1455;DHT22;721;48.168;12.818;2022-08-01T00:53:45;20.90;11.70
1455;DHT22;721;48.168;12.818;2022-08-01T00:56:13;21.00;11.40
1455;DHT22;721;48.168;12.818;2022-08-01T00:58:40;21.00;11.40
1455;DHT22;721;48.168;12.818;2022-08-01T01:01:09;20.90;13.30
1455;DHT22;721;48.168;12.818;2022-08-01T01:03:36;21.00;11.80
1455;DHT22;721;48.168;12.818;2022-08-01T01:06:14;21.00;11.30
1455;DHT22;721;48.168;12.818;2022-08-01T01:08:51;21.00;11.80
1455;DHT22;721;48.168;12.818;2022-08-01T01:11:27;21.00;11.90
1455;DHT22;721;48.168;12.818;2022-08-01T01:14:00;21.00;12.40
1455;DHT22;721;48.168;12.818;2022-08-01T01:16:30;21.00;12.00
1455;DHT22;721;48.168;12.818;2022-08-01T01:19:01;21.10;11.50
1455;DHT22;721;48.168;12.818;2022-08-01T01:21:47;21.10;11.80
1455;DHT22;721;48.168;12.818;2022-08-01T01:24:26;21.20;10.70
1455;DHT22;721;48.168;12.818;2022-08-01T01:27:01;21.30;10.40
1455;DHT22;721;48.168;12.818;2022-08-01T01:29:38;21.40;9.70
1455;DHT22;721;48.168;12.818;2022-08-01T01:32:07;21.50;9.80
1455;DHT22;721;48.168;12.818;2022-08-01T01:34:37;21.70;8.60
1455;DHT22;721;48.168;12.818;2022-08-01T01:37:08;21.60;8.60
1455;DHT22;721;48.168;12.818;2022-08-01T01:39:37;21.60;9.20
1455;DHT22;721;48.168;12.818;2022-08-01T01:42:06;21.50;9.90
1455;DHT22;721;48.168;12.818;2022-08-01T01:44:36;21.50;10.50
1455;DHT22;721;48.168;12.818;2022-08-01T01:47:04;21.30;11.10
1455;DHT22;721;48.168;12.818;2022-08-01T01:49:34;21.20;12.10
1455;DHT22;721;48.168;12.818;2022-08-01T01:52:02;21.30;12.30
1455;DHT22;721;48.168;12.818;2022-08-01T01:54:31;21.20;11.90
1455;DHT22;721;48.168;12.818;2022-08-01T01:57:00;21.20;12.60
1455;DHT22;721;48.168;12.818;2022-08-01T01:59:30;21.10;12.80
1455;DHT22;721;48.168;12.818;2022-08-01T02:02:01;21.20;12.00
1455;DHT22;721;48.168;12.818;2022-08-01T02:04:30;21.30;12.30
1455;DHT22;721;48.168;12.818;2022-08-01T02:06:59;21.20;13.00
1455;DHT22;721;48.168;12.818;2022-08-01T02:09:28;21.10;13.90
1455;DHT22;721;48.168;12.818;2022-08-01T02:11:56;21.20;12.70
1455;DHT22;721;48.168;12.818;2022-08-01T02:14:24;21.10;13.20
1455;DHT22;721;48.168;12.818;2022-08-01T02:16:54;21.20;12.30
1455;DHT22;721;48.168;12.818;2022-08-01T02:19:25;21.10;12.50
1455;DHT22;721;48.168;12.818;2022-08-01T02:21:57;21.10;12.30
1455;DHT22;721;48.168;12.818;2022-08-01T02:24:30;21.30;11.30
1455;DHT22;721;48.168;12.818;2022-08-01T02:27:02;21.30;11.20
1455;DHT22;721;48.168;12.818;2022-08-01T02:29:37;21.30;10.60
1455;DHT22;721;48.168;12.818;2022-08-01T02:32:08;21.10;12.20
1455;DHT22;721;48.168;12.818;2022-08-01T02:34:39;21.10;11.80
1455;DHT22;721;48.168;12.818;2022-08-01T02:37:07;21.00;12.70
1455;DHT22;721;48.168;12.818;2022-08-01T02:39:36;21.00;11.60
1455;DHT22;721;48.168;12.818;2022-08-01T02:42:06;21.10;10.30
1455;DHT22;721;48.168;12.818;2022-08-01T02:44:37;21.10;10.20
1455;DHT22;721;48.168;12.818;2022-08-01T02:47:05;21.00;9.50
1455;DHT22;721;48.168;12.818;2022-08-01T02:49:35;21.00;8.60
1455;DHT22;721;48.168;12.818;2022-08-01T02:52:06;21.10;7.90
1455;DHT22;721;48.168;12.818;2022-08-01T02:54:35;21.10;7.10
1455;DHT22;721;48.168;12.818;2022-08-01T02:57:03;21.00;7.10
1455;DHT22;721;48.168;12.818;2022-08-01T02:59:31;21.10;6.30
1455;DHT22;721;48.168;12.818;2022-08-01T03:02:00;21.00;5.80
1455;DHT22;721;48.168;12.818;2022-08-01T03:04:28;20.90;6.10
1455;DHT22;721;48.168;12.818;2022-08-01T03:06:57;20.90;5.70
1455;DHT22;721;48.168;12.818;2022-08-01T03:09:26;21.10;5.20
1455;DHT22;721;48.168;12.818;2022-08-01T03:11:57;21.00;4.70
1455;DHT22;721;48.168;12.818;2022-08-01T03:14:25;20.80;5.20
1455;DHT22;721;48.168;12.818;2022-08-01T03:16:54;20.70;5.50
1455;DHT22;721;48.168;12.818;2022-08-01T03:19:24;20.60;5.90
1455;DHT22;721;48.168;12.818;2022-08-01T03:21:53;20.60;5.90
1455;DHT22;721;48.168;12.818;2022-08-01T03:24:25;20.50;6.10
1455;DHT22;721;48.168;12.818;2022-08-01T03:26:57;20.40;6.00
1455;DHT22;721;48.168;12.818;2022-08-01T03:29:27;20.50;6.00
1455;DHT22;721;48.168;12.818;2022-08-01T03:31:56;20.50;5.60
1455;DHT22;721;48.168;12.818;2022-08-01T03:34:24;20.60;4.90
1455;DHT22;721;48.168;12.818;2022-08-01T03:36:55;20.70;4.40
1455;DHT22;721;48.168;12.818;2022-08-01T03:39:28;20.70;4.40
1455;DHT22;721;48.168;12.818;2022-08-01T03:41:59;20.60;4.30
1455;DHT22;721;48.168;12.818;2022-08-01T03:44:29;20.50;4.80
1455;DHT22;721;48.168;12.818;2022-08-01T03:47:00;20.60;4.20
1455;DHT22;721;48.168;12.818;2022-08-01T03:49:31;20.60;4.80
1455;DHT22;721;48.168;12.818;2022-08-01T03:51:59;20.50;4.20
1455;DHT22;721;48.168;12.818;2022-08-01T03:54:31;20.50;4.20
1455;DHT22;721;48.168;12.818;2022-08-01T03:57:00;20.50;4.30
1455;DHT22;721;48.168;12.818;2022-08-01T03:59:32;20.40;4.50
1455;DHT22;721;48.168;12.818;2022-08-01T04:02:02;20.50;4.20
1455;DHT22;721;48.168;12.818;2022-08-01T04:04:32;20.30;4.80
1455;DHT22;721;48.168;12.818;2022-08-01T04:06:59;20.50;4.10
1455;DHT22;721;48.168;12.818;2022-08-01T04:09:31;20.50;4.30
1455;DHT22;721;48.168;12.818;2022-08-01T04:11:59;20.50;4.10
1455;DHT22;721;48.168;12.818;2022-08-01T04:14:26;20.40;4.30
1455;DHT22;721;48.168;12.818;2022-08-01T04:16:53;20.30;4.50
1455;DHT22;721;48.168;12.818;2022-08-01T04:19:20;20.10;5.40
1455;DHT22;721;48.168;12.818;2022-08-01T04:21:48;20.00;5.90
1455;DHT22;721;48.168;12.818;2022-08-01T04:24:17;20.00;6.20
1455;DHT22;721;48.168;12.818;2022-08-01T04:26:47;19.90;6.70
1455;DHT22;721;48.168;12.818;2022-08-01T04:29:17;20.00;7.20
1455;DHT22;721;48.168;12.818;2022-08-01T04:31:47;20.00;7.10
1455;DHT22;721;48.168;12.818;2022-08-01T04:34:17;20.00;7.00
1455;DHT22;721;48.168;12.818;2022-08-01T04:36:54;20.00;7.30
1455;DHT22;721;48.168;12.818;2022-08-01T04:39:23;19.90;8.50
1455;DHT22;721;48.168;12.818;2022-08-01T04:41:54;20.00;8.00
1455;DHT22;721;48.168;12.818;2022-08-01T04:44:22;19.90;8.00
1455;DHT22;721;48.168;12.818;2022-08-01T04:46:50;19.90;7.70
1455;DHT22;721;48.168;12.818;2022-08-01T04:49:20;19.90;7.90
1455;DHT22;721;48.168;12.818;2022-08-01T04:51:50;19.90;7.70
1455;DHT22;721;48.168;12.818;2022-08-01T04:54:18;20.00;7.60
1455;DHT22;721;48.168;12.818;2022-08-01T04:56:46;20.00;7.80
1455;DHT22;721;48.168;12.818;2022-08-01T04:59:14;20.00;7.70
1455;DHT22;721;48.168;12.818;2022-08-01T05:01:59;20.00;7.60
1455;DHT22;721;48.168;12.818;2022-08-01T05:04:26;20.10;7.30
1455;DHT22;721;48.168;12.818;2022-08-01T05:06:52;20.20;6.60
1455;DHT22;721;48.168;12.818;2022-08-01T05:09:19;20.10;7.00
1455;DHT22;721;48.168;12.818;2022-08-01T05:11:46;20.30;6.80
1455;DHT22;721;48.168;12.818;2022-08-01T05:14:15;20.30;6.00
1455;DHT22;721;48.168;12.818;2022-08-01T05:16:42;20.40;5.90
1455;DHT22;721;48.168;12.818;2022-08-01T05:19:09;20.30;6.50
1455;DHT22;721;48.168;12.818;2022-08-01T05:21:36;20.30;6.40
1455;DHT22;721;48.168;12.818;2022-08-01T05:24:03;20.40;6.40
1455;DHT22;721;48.168;12.818;2022-08-01T05:26:30;20.50;5.50
1455;DHT22;721;48.168;12.818;2022-08-01T05:28:58;20.70;4.90
1455;DHT22;721;48.168;12.818;2022-08-01T05:31:26;20.80;4.20
1455;DHT22;721;48.168;12.818;2022-08-01T05:33:54;20.90;3.70
1455;DHT22;721;48.168;12.818;2022-08-01T05:36:20;21.10;3.10
1455;DHT22;721;48.168;12.818;2022-08-01T05:38:51;21.20;2.30
1455;DHT22;721;48.168;12.818;2022-08-01T05:41:18;21.20;1.50
1455;DHT22;721;48.168;12.818;2022-08-01T05:43:46;21.40;1.70
1455;DHT22;721;48.168;12.818;2022-08-01T05:46:13;21.50;1.20
1455;DHT22;721;48.168;12.818;2022-08-01T05:48:42;21.50;1.00
1455;DHT22;721;48.168;12.818;2022-08-01T05:51:08;21.60;1.00
1455;DHT22;721;48.168;12.818;2022-08-01T05:53:35;21.70;1.00
1455;DHT22;721;48.168;12.818;2022-08-01T05:56:02;22.00;1.00
1455;DHT22;721;48.168;12.818;2022-08-01T05:58:29;22.20;1.00
1455;DHT22;721;48.168;12.818;2022-08-01T06:00:57;22.30;1.00
1455;DHT22;721;48.168;12.818;2022-08-01T06:03:24;22.40;1.00
1455;DHT22;721;48.168;12.818;2022-08-01T06:05:52;22.30;1.00
1455;DHT22;721;48.168;12.818;2022-08-01T06:08:19;22.30;1.00
1455;DHT22;721;48.168;12.818;2022-08-01T06:10:46;22.40;1.00
1455;DHT22;721;48.168;12.818;2022-08-01T06:13:12;22.50;1.00
1455;DHT22;721;48.168;12.818;2022-08-01T06:15:39;22.60;1.00
1455;DHT22;721;48.168;12.818;2022-08-01T06:18:06;22.70;1.00
1455;DHT22;721;48.168;12.818;2022-08-01T06:20:33;22.70;1.00
1455;DHT22;721;48.168;12.818;2022-08-01T06:23:01;22.90;1.00
1455;DHT22;721;48.168;12.818;2022-08-01T06:25:28;22.90;1.00
1455;DHT22;721;48.168;12.818;2022-08-01T06:27:55;23.00;1.00
1455;DHT22;721;48.168;12.818;2022-08-01T06:30:22;23.00;1.00
1455;DHT22;721;48.168;12.818;2022-08-01T06:32:49;23.20;1.00
1455;DHT22;721;48.168;12.818;2022-08-01T06:35:16;23.20;1.00
1455;DHT22;721;48.168;12.818;2022-08-01T06:37:42;23.30;1.00
1455;DHT22;721;48.168;12.818;2022-08-01T06:40:13;23.10;1.00
1455;DHT22;721;48.168;12.818;2022-08-01T06:42:39;23.10;1.00
1455;DHT22;721;48.168;12.818;2022-08-01T06:45:08;23.10;1.00
1455;DHT22;721;48.168;12.818;2022-08-01T06:47:35;23.20;1.00
1455;DHT22;721;48.168;12.818;2022-08-01T06:50:06;23.30;1.00
1455;DHT22;721;48.168;12.818;2022-08-01T06:52:34;23.50;1.00
1455;DHT22;721;48.168;12.818;2022-08-01T06:55:02;23.50;1.00
1455;DHT22;721;48.168;12.818;2022-08-01T06:57:30;23.40;1.00
1455;DHT22;721;48.168;12.818;2022-08-01T07:00:01;23.30;1.00
1455;DHT22;721;48.168;12.818;2022-08-01T07:02:28;23.40;1.00
1455;DHT22;721;48.168;12.818;2022-08-01T07:04:54;23.80;1.00
1455;DHT22;721;48.168;12.818;2022-08-01T07:07:25;23.80;1.00
1455;DHT22;721;48.168;12.818;2022-08-01T07:09:52;23.90;1.00
1455;DHT22;721;48.168;12.818;2022-08-01T07:12:19;23.90;1.00
1455;DHT22;721;48.168;12.818;2022-08-01T07:14:47;23.90;1.00
1455;DHT22;721;48.168;12.818;2022-08-01T07:17:14;23.70;1.00
1455;DHT22;721;48.168;12.818;2022-08-01T07:19:41;23.90;1.00
1455;DHT22;721;48.168;12.818;2022-08-01T07:22:07;23.90;1.00
1455;DHT22;721;48.168;12.818;2022-08-01T07:24:34;23.90;1.00
1455;DHT22;721;48.168;12.818;2022-08-01T07:27:01;23.90;1.00
1455;DHT22;721;48.168;12.818;2022-08-01T07:29:28;24.20;1.00
1455;DHT22;721;48.168;12.818;2022-08-01T07:31:57;24.10;1.00
1455;DHT22;721;48.168;12.818;2022-08-01T07:34:25;24.20;1.00
1455;DHT22;721;48.168;12.818;2022-08-01T07:36:52;24.20;1.00
1455;DHT22;721;48.168;12.818;2022-08-01T07:39:19;24.20;1.00
1455;DHT22;721;48.168;12.818;2022-08-01T07:41:46;24.20;1.00
1455;DHT22;721;48.168;12.818;2022-08-01T07:44:13;24.00;1.00
1455;DHT22;721;48.168;12.818;2022-08-01T07:46:40;24.20;1.00
1455;DHT22;721;48.168;12.818;2022-08-01T07:49:08;24.20;1.00
1455;DHT22;721;48.168;12.818;2022-08-01T07:51:35;24.30;1.00
1455;DHT22;721;48.168;12.818;2022-08-01T07:54:02;24.30;1.00
1455;DHT22;721;48.168;12.818;2022-08-01T07:56:29;24.50;1.00
1455;DHT22;721;48.168;12.818;2022-08-01T07:58:55;24.80;1.00
1455;DHT22;721;48.168;12.818;2022-08-01T08:01:22;25.00;1.00
1455;DHT22;721;48.168;12.818;2022-08-01T08:03:49;25.10;1.00
1455;DHT22;721;48.168;12.818;2022-08-01T08:06:17;25.20;1.00
1455;DHT22;721;48.168;12.818;2022-08-01T08:08:44;25.30;1.00
1455;DHT22;721;48.168;12.818;2022-08-01T08:11:11;25.30;1.00
1455;DHT22;721;48.168;12.818;2022-08-01T08:13:37;25.20;1.00
1455;DHT22;721;48.168;12.818;2022-08-01T08:16:04;25.40;1.00
1455;DHT22;721;48.168;12.818;2022-08-01T08:18:31;25.60;1.00
1455;DHT22;721;48.168;12.818;2022-08-01T08:20:58;25.60;1.00
1455;DHT22;721;48.168;12.818;2022-08-01T08:23:26;25.60;1.00
1455;DHT22;721;48.168;12.818;2022-08-01T08:26:11;25.70;1.00
1455;DHT22;721;48.168;12.818;2022-08-01T08:28:38;25.60;1.00
1455;DHT22;721;48.168;12.818;2022-08-01T08:31:04;25.60;1.00
1455;DHT22;721;48.168;12.818;2022-08-01T08:33:31;25.80;1.00
1455;DHT22;721;48.168;12.818;2022-08-01T08:35:58;25.90;1.00
1455;DHT22;721;48.168;12.818;2022-08-01T08:38:26;25.90;1.00
1455;DHT22;721;48.168;12.818;2022-08-01T08:40:53;25.90;1.00
1455;DHT22;721;48.168;12.818;2022-08-01T08:43:20;25.90;1.00
1455;DHT22;721;48.168;12.818;2022-08-01T08:45:48;25.80;1.00
1455;DHT22;721;48.168;12.818;2022-08-01T08:48:16;25.80;1.00
1455;DHT22;721;48.168;12.818;2022-08-01T08:50:43;25.70;1.00
1455;DHT22;721;48.168;12.818;2022-08-01T08:53:13;25.60;1.00
1455;DHT22;721;48.168;12.818;2022-08-01T08:55:42;26.00;1.00
1455;DHT22;721;48.168;12.818;2022-08-01T08:58:11;26.20;1.00
1455;DHT22;721;48.168;12.818;2022-08-01T09:00:41;26.20;1.00
1455;DHT22;721;48.168;12.818;2022-08-01T09:03:08;26.00;1.00
1455;DHT22;721;48.168;12.818;2022-08-01T09:05:35;26.30;1.00
1455;DHT22;721;48.168;12.818;2022-08-01T09:08:06;26.50;1.00
1455;DHT22;721;48.168;12.818;2022-08-01T09:10:33;26.30;1.00
1455;DHT22;721;48.168;12.818;2022-08-01T09:13:09;26.20;1.00
1455;DHT22;721;48.168;12.818;2022-08-01T09:15:42;26.20;1.00
1455;DHT22;721;48.168;12.818;2022-08-01T09:18:26;26.30;1.00
1455;DHT22;721;48.168;12.818;2022-08-01T09:21:08;26.50;1.00
1455;DHT22;721;48.168;12.818;2022-08-01T09:23:36;26.70;1.00
1455;DHT22;721;48.168;12.818;2022-08-01T09:26:05;26.50;1.00
1455;DHT22;721;48.168;12.818;2022-08-01T09:28:33;26.60;1.00
1455;DHT22;721;48.168;12.818;2022-08-01T09:31:06;26.60;1.00
1455;DHT22;721;48.168;12.818;2022-08-01T09:33:48;26.80;1.00
1455;DHT22;721;48.168;12.818;2022-08-01T09:36:15;26.90;1.00
1455;DHT22;721;48.168;12.818;2022-08-01T09:38:42;27.00;1.00
1455;DHT22;721;48.168;12.818;2022-08-01T09:41:09;26.70;1.00
1455;DHT22;721;48.168;12.818;2022-08-01T09:43:38;26.70;1.00
1455;DHT22;721;48.168;12.818;2022-08-01T09:46:08;26.70;1.00
1455;DHT22;721;48.168;12.818;2022-08-01T09:48:36;26.90;1.00
1455;DHT22;721;48.168;12.818;2022-08-01T09:51:05;27.00;1.00
1455;DHT22;721;48.168;12.818;2022-08-01T09:53:43;27.20;1.00
1455;DHT22;721;48.168;12.818;2022-08-01T09:56:11;27.20;1.00
1455;DHT22;721;48.168;12.818;2022-08-01T09:58:56;26.90;1.00
1455;DHT22;721;48.168;12.818;2022-08-01T10:01:23;26.90;1.00
1455;DHT22;721;48.168;12.818;2022-08-01T10:04:05;27.30;1.00
1455;DHT22;721;48.168;12.818;2022-08-01T10:06:32;27.70;1.00
1455;DHT22;721;48.168;12.818;2022-08-01T10:08:59;27.90;1.00
1455;DHT22;721;48.168;12.818;2022-08-01T10:11:26;27.60;1.00
1455;DHT22;721;48.168;12.818;2022-08-01T10:13:56;27.40;1.00
1455;DHT22;721;48.168;12.818;2022-08-01T10:16:26;27.60;1.00
1455;DHT22;721;48.168;12.818;2022-08-01T10:18:55;27.80;1.00
1455;DHT22;721;48.168;12.818;2022-08-01T10:21:27;27.60;1.00
1455;DHT22;721;48.168;12.818;2022-08-01T10:23:54;27.20;1.00
1455;DHT22;721;48.168;12.818;2022-08-01T10:26:25;27.10;1.00
1455;DHT22;721;48.168;12.818;2022-08-01T10:28:52;27.20;1.00
1455;DHT22;721;48.168;12.818;2022-08-01T10:31:22;27.40;1.00
1455;DHT22;721;48.168;12.818;2022-08-01T10:33:50;27.60;1.00
1455;DHT22;721;48.168;12.818;2022-08-01T10:36:19;27.80;1.00
1455;DHT22;721;48.168;12.818;2022-08-01T10:38:47;28.00;1.00
1455;DHT22;721;48.168;12.818;2022-08-01T10:41:14;27.90;1.00
1455;DHT22;721;48.168;12.818;2022-08-01T10:43:42;27.90;1.00
1455;DHT22;721;48.168;12.818;2022-08-01T10:46:09;28.00;1.00
1455;DHT22;721;48.168;12.818;2022-08-01T10:48:45;28.10;1.00
1455;DHT22;721;48.168;12.818;2022-08-01T10:51:14;28.10;1.00
1455;DHT22;721;48.168;12.818;2022-08-01T10:53:46;28.20;1.00
1455;DHT22;721;48.168;12.818;2022-08-01T10:56:14;28.30;1.00
1455;DHT22;721;48.168;12.818;2022-08-01T10:58:43;28.60;1.00
1455;DHT22;721;48.168;12.818;2022-08-01T11:01:19;28.60;1.00
1455;DHT22;721;48.168;12.818;2022-08-01T11:04:07;28.50;1.00
1455;DHT22;721;48.168;12.818;2022-08-01T11:06:50;28.50;1.00
1455;DHT22;721;48.168;12.818;2022-08-01T11:09:23;28.60;1.00
1455;DHT22;721;48.168;12.818;2022-08-01T11:11:58;28.90;1.00
1455;DHT22;721;48.168;12.818;2022-08-01T11:14:26;29.00;1.00
1455;DHT22;721;48.168;12.818;2022-08-01T11:16:52;28.70;1.00
1455;DHT22;721;48.168;12.818;2022-08-01T11:19:21;28.10;1.00
1455;DHT22;721;48.168;12.818;2022-08-01T11:22:00;28.00;1.00
1455;DHT22;721;48.168;12.818;2022-08-01T11:24:55;27.60;1.00
1455;DHT22;721;48.168;12.818;2022-08-01T11:27:25;27.80;1.00
1455;DHT22;721;48.168;12.818;2022-08-01T11:30:22;28.30;1.00
1455;DHT22;721;48.168;12.818;2022-08-01T11:32:52;28.70;1.00
1455;DHT22;721;48.168;12.818;2022-08-01T11:35:21;28.80;1.00
1455;DHT22;721;48.168;12.818;2022-08-01T11:37:50;28.90;1.00
1455;DHT22;721;48.168;12.818;2022-08-01T11:40:20;28.90;1.00
1455;DHT22;721;48.168;12.818;2022-08-01T11:42:48;28.80;1.00
1455;DHT22;721;48.168;12.818;2022-08-01T11:45:15;28.50;1.00
1455;DHT22;721;48.168;12.818;2022-08-01T11:47:43;28.60;1.00
1455;DHT22;721;48.168;12.818;2022-08-01T11:50:34;28.70;1.00
1455;DHT22;721;48.168;12.818;2022-08-01T11:53:03;28.70;1.00
1455;DHT22;721;48.168;12.818;2022-08-01T11:55:31;29.10;1.00
1455;DHT22;721;48.168;12.818;2022-08-01T11:58:00;29.30;1.00
1455;DHT22;721;48.168;12.818;2022-08-01T12:00:28;29.20;1.00
1455;DHT22;721;48.168;12.818;2022-08-01T12:02:58;28.80;1.00
1455;DHT22;721;48.168;12.818;2022-08-01T12:05:25;28.50;1.00
1455;DHT22;721;48.168;12.818;2022-08-01T12:07:55;28.30;1.00
1455;DHT22;721;48.168;12.818;2022-08-01T12:10:23;28.30;1.00
1455;DHT22;721;48.168;12.818;2022-08-01T12:12:53;28.60;1.00
1455;DHT22;721;48.168;12.818;2022-08-01T12:15:23;28.60;1.00
1455;DHT22;721;48.168;12.818;2022-08-01T12:17:56;28.70;1.00
1455;DHT22;721;48.168;12.818;2022-08-01T12:20:23;28.70;1.00
1455;DHT22;721;48.168;12.818;2022-08-01T12:22:54;28.40;1.00
1455;DHT22;721;48.168;12.818;2022-08-01T12:25:22;28.60;1.00
1455;DHT22;721;48.168;12.818;2022-08-01T12:27:49;28.50;1.00
1455;DHT22;721;48.168;12.818;2022-08-01T12:30:17;28.80;1.00
1455;DHT22;721;48.168;12.818;2022-08-01T12:32:46;29.00;1.00
1455;DHT22;721;48.168;12.818;2022-08-01T12:35:14;29.30;1.00
1455;DHT22;721;48.168;12.818;2022-08-01T12:37:42;29.30;1.00
1455;DHT22;721;48.168;12.818;2022-08-01T12:40:13;29.40;1.00
1455;DHT22;721;48.168;12.818;2022-08-01T12:42:41;29.30;1.00
1455;DHT22;721;48.168;12.818;2022-08-01T12:45:10;29.30;1.00
1455;DHT22;721;48.168;12.818;2022-08-01T12:47:38;29.50;1.00
1455;DHT22;721;48.168;12.818;2022-08-01T12:50:07;29.20;1.00
1455;DHT22;721;48.168;12.818;2022-08-01T12:52:34;29.20;1.00
1455;DHT22;721;48.168;12.818;2022-08-01T12:55:05;29.30;1.00
1455;DHT22;721;48.168;12.818;2022-08-01T12:57:39;29.50;1.00
1455;DHT22;721;48.168;12.818;2022-08-01T13:00:12;29.90;1.00
1455;DHT22;721;48.168;12.818;2022-08-01T13:02:40;29.80;1.00
1455;DHT22;721;48.168;12.818;2022-08-01T13:05:08;29.70;1.00
1455;DHT22;721;48.168;12.818;2022-08-01T13:07:49;29.60;1.00
1455;DHT22;721;48.168;12.818;2022-08-01T13:10:26;29.20;1.00
1455;DHT22;721;48.168;12.818;2022-08-01T13:12:57;29.30;1.00
1455;DHT22;721;48.168;12.818;2022-08-01T13:15:27;29.70;1.00
1455;DHT22;721;48.168;12.818;2022-08-01T13:17:56;29.80;1.00
1455;DHT22;721;48.168;12.818;2022-08-01T13:20:25;29.80;1.00
1455;DHT22;721;48.168;12.818;2022-08-01T13:22:53;30.10;1.00
1455;DHT22;721;48.168;12.818;2022-08-01T13:25:20;30.00;1.00
1455;DHT22;721;48.168;12.818;2022-08-01T13:27:47;29.80;1.00
1455;DHT22;721;48.168;12.818;2022-08-01T13:30:16;29.60;1.00
1455;DHT22;721;48.168;12.818;2022-08-01T13:32:56;29.50;1.00
1455;DHT22;721;48.168;12.818;2022-08-01T13:35:23;29.40;1.00
1455;DHT22;721;48.168;12.818;2022-08-01T13:37:49;29.30;1.00
1455;DHT22;721;48.168;12.818;2022-08-01T13:40:24;29.40;1.00
1455;DHT22;721;48.168;12.818;2022-08-01T13:42:51;29.30;1.00
1455;DHT22;721;48.168;12.818;2022-08-01T13:45:20;29.70;1.00
1455;DHT22;721;48.168;12.818;2022-08-01T13:47:47;29.80;1.00
1455;DHT22;721;48.168;12.818;2022-08-01T13:50:14;29.90;1.00
1455;DHT22;721;48.168;12.818;2022-08-01T13:52:41;30.10;1.00
1455;DHT22;721;48.168;12.818;2022-08-01T13:55:08;30.00;1.00
1455;DHT22;721;48.168;12.818;2022-08-01T13:57:35;29.70;1.00
1455;DHT22;721;48.168;12.818;2022-08-01T14:00:04;29.50;1.00
1455;DHT22;721;48.168;12.818;2022-08-01T14:02:33;29.40;1.00
1455;DHT22;721;48.168;12.818;2022-08-01T14:05:00;28.90;1.00
1455;DHT22;721;48.168;12.818;2022-08-01T14:07:27;28.70;1.00
1455;DHT22;721;48.168;12.818;2022-08-01T14:09:54;28.60;1.00
1455;DHT22;721;48.168;12.818;2022-08-01T14:12:21;28.70;1.00
1455;DHT22;721;48.168;12.818;2022-08-01T14:14:48;28.60;1.00
1455;DHT22;721;48.168;12.818;2022-08-01T14:17:15;28.50;1.00
1455;DHT22;721;48.168;12.818;2022-08-01T14:19:43;28.40;1.00
1455;DHT22;721;48.168;12.818;2022-08-01T14:22:10;28.40;1.00
1455;DHT22;721;48.168;12.818;2022-08-01T14:24:37;28.40;1.00
1455;DHT22;721;48.168;12.818;2022-08-01T14:27:04;28.30;1.00
1455;DHT22;721;48.168;12.818;2022-08-01T14:29:31;28.30;1.00
1455;DHT22;721;48.168;12.818;2022-08-01T14:31:58;28.50;1.00
1455;DHT22;721;48.168;12.818;2022-08-01T14:34:24;28.70;1.00
1455;DHT22;721;48.168;12.818;2022-08-01T14:36:53;28.70;1.00
1455;DHT22;721;48.168;12.818;2022-08-01T14:39:20;28.70;1.00
1455;DHT22;721;48.168;12.818;2022-08-01T14:41:47;28.70;1.00
1455;DHT22;721;48.168;12.818;2022-08-01T14:44:14;28.70;1.00
1455;DHT22;721;48.168;12.818;2022-08-01T14:46:41;28.50;1.00
1455;DHT22;721;48.168;12.818;2022-08-01T14:49:09;28.40;1.00
1455;DHT22;721;48.168;12.818;2022-08-01T14:51:36;28.50;1.00
1455;DHT22;721;48.168;12.818;2022-08-01T14:54:06;28.40;1.00
1455;DHT22;721;48.168;12.818;2022-08-01T14:56:32;28.20;1.00
1455;DHT22;721;48.168;12.818;2022-08-01T14:58:59;28.30;1.00
1455;DHT22;721;48.168;12.818;2022-08-01T15:01:26;28.20;1.00
1455;DHT22;721;48.168;12.818;2022-08-01T15:03:53;28.20;1.00
1455;DHT22;721;48.168;12.818;2022-08-01T15:06:21;28.40;1.00
1455;DHT22;721;48.168;12.818;2022-08-01T15:08:48;28.80;1.00
1455;DHT22;721;48.168;12.818;2022-08-01T15:11:16;28.90;1.00
1455;DHT22;721;48.168;12.818;2022-08-01T15:13:43;28.90;1.00
1455;DHT22;721;48.168;12.818;2022-08-01T15:16:10;28.90;1.00
1455;DHT22;721;48.168;12.818;2022-08-01T15:18:36;29.10;1.00
1455;DHT22;721;48.168;12.818;2022-08-01T15:21:03;29.60;1.00
1455;DHT22;721;48.168;12.818;2022-08-01T15:23:31;29.50;1.00
1455;DHT22;721;48.168;12.818;2022-08-01T15:25:58;29.20;1.00
1455;DHT22;721;48.168;12.818;2022-08-01T15:28:26;29.10;1.00
1455;DHT22;721;48.168;12.818;2022-08-01T15:30:53;29.40;1.00
1455;DHT22;721;48.168;12.818;2022-08-01T15:33:20;29.60;1.00
1455;DHT22;721;48.168;12.818;2022-08-01T15:35:47;29.50;1.00
1455;DHT22;721;48.168;12.818;2022-08-01T15:38:14;29.50;1.00
1455;DHT22;721;48.168;12.818;2022-08-01T15:40:41;29.30;1.00
1455;DHT22;721;48.168;12.818;2022-08-01T15:43:07;28.90;1.00
1455;DHT22;721;48.168;12.818;2022-08-01T15:45:36;28.60;1.00
1455;DHT22;721;48.168;12.818;2022-08-01T15:48:06;28.50;1.00
1455;DHT22;721;48.168;12.818;2022-08-01T15:50:33;28.40;1.00
1455;DHT22;721;48.168;12.818;2022-08-01T15:53:03;28.20;1.00
1455;DHT22;721;48.168;12.818;2022-08-01T15:55:29;28.10;1.00
1455;DHT22;721;48.168;12.818;2022-08-01T15:57:56;27.90;1.00
1455;DHT22;721;48.168;12.818;2022-08-01T16:00:23;27.80;1.00
1455;DHT22;721;48.168;12.818;2022-08-01T16:02:52;27.70;1.00
1455;DHT22;721;48.168;12.818;2022-08-01T16:05:19;27.70;1.00
1455;DHT22;721;48.168;12.818;2022-08-01T16:07:46;27.50;1.00
1455;DHT22;721;48.168;12.818;2022-08-01T16:10:13;27.50;1.00
1455;DHT22;721;48.168;12.818;2022-08-01T16:12:40;27.50;1.00
1455;DHT22;721;48.168;12.818;2022-08-01T16:15:08;27.50;1.00
1455;DHT22;721;48.168;12.818;2022-08-01T16:17:35;27.40;1.00
1455;DHT22;721;48.168;12.818;2022-08-01T16:20:05;27.30;1.00
1455;DHT22;721;48.168;12.818;2022-08-01T16:22:32;27.30;1.00
1455;DHT22;721;48.168;12.818;2022-08-01T16:25:04;27.30;1.00
1455;DHT22;721;48.168;12.818;2022-08-01T16:27:31;27.20;1.00